Lantana, FL

9:52 AM EDT on August 02, 2015 (GMT -0400)
APRSWXNET | | Change Station
CLOSE
Current Station
Personal Weather Station
Location: Boca Raton, FL
Elevation: 16 ft
Nearby Weather Stations

Elev 16 ft 26.58 °N, 80.06 °W | Updated 32 days ago

Cloudy
Cloudy
84 °F
Feels Like 91 °F
N
10
Wind Variable Wind from South
Gusts mph

Today
High -- | Low -- °F
--% Chance of Precip.
Yesterday
High -- | Low -- °F
Precip. -- in
6:45 AM 8:07 PM
Waning Gibbous, 94% visible
Pressure 29.98 in
Visibility 10.0 miles
Clouds Few 2500 ft
Mostly Cloudy 15000 ft
Overcast 25000 ft
Heat Index 91 °F
Dew Point 74 °F
Humidity 72%
Rainfall in
Snow Depth Not available.
UV 1 out of 12
Pollen 3.40 out of 12
Air Quality Not available.
Flu Activity Not available.
METAR KPBI 021253Z 18003KT 10SM FEW025 BKN150 OVC250 28/24 A2998 RMK AO2 SLP151 T02780239

More Conditions Fewer Conditions

Pressure 29.98 in
Visibility 10.0 miles
Clouds Few 2500 ft
Mostly Cloudy 15000 ft
Overcast 25000 ft
Heat Index 91 °F
Dew Point 74 °F
Humidity 72%
Rainfall in
Snow Depth Not available.
UV 1 out of 12
Pollen 3.40 out of 12
Air Quality Not available.
Flu Activity Not available.
METAR KPBI 021253Z 18003KT 10SM FEW025 BKN150 OVC250 28/24 A2998 RMK AO2 SLP151 T02780239

More Conditions Fewer Conditions

10-Day Weather Forecast

×

Almanac

Astronomy

Aug. 02, 2015 Rise Set
Actual Time
Civil Twilight
Nautical Twilight
Astronomical Twilight
Moon
Length of Visible Light
Length of Day
Tomorrow will be .
, % of the Moon is Illuminated

Today's Extremes

State Highs State Lows

Community

WunderPhotos

Upload Photos

1,843,254 photos uploaded!

WunderBlogs® & News

Nearby

Air Quality

  Air Quality AQ Index Pollutant
Not available.

Snow Depth

Station Depth Elevation

Earthquake Activity

City Distance Mag. Time & Date
Minimum magnitude displayed is 2.5.

Coastal Water Temperatures

Place Temperature

Stations

Nearby Weather Stations

Station Location Temp. Windchill Dew Point Humidity Wind Precip. Elev Updated Type